メインページ
METAR-TAF:

METAR-TAF

空港 :

ラナイ・シティ, ハワイ州, アメリカ合衆国

緯度: 20-47N, 経度: 156-57W, 海抜: 399m

現時点の気象観測

当レポートは37分前の14:56(UTC)に作成
の風 6kt
気温 17°C
湿度 82%
気圧 1018 hPa
視程: 16.1km
晴天

METAR: PHNY 141456Z AUTO 09006KT 10SM CLR 17/14 A3007 RMK AO2 SLP164 T01720139 56006

時間: 05:33 (15:33 UTC)

予報

当レポートは3時間52分前の11:41(UTC)に作成
予報は14日の 12時(UTC)から 15日の 12時(UTC)まで有効
北東の風 7kt
視程: 10km
晴天
14日の 2000時(UTC)から
西/南西の風 8kt
視程: 10km
高度2500ftの雲は散在している
高度3500ftの千切れ雲あり
14日の 21時(UTC)から 15日の 01時(UTC)まで一時的に
高度2500ftの千切れ雲あり
15日の 0300時(UTC)から
北/北東の風 9kt
視程: 10km
高度3000ftの雲はほとんどない
高度4000ftの雲は散在している

TAF: PHNY 141141Z 1412/1512 05007KT P6SM SKC FM142000 24008KT P6SM SCT025 BKN035 TEMPO 1421/1501 BKN025 FM150300 03009KT P6SM FEW030 SCT040

4,000以上の空港の気象観測と天気予報(METAR報とTAF報)

利用可能な観測所は地図上に黄色い丸と赤い丸で示す。

丸の上にカーソルを重ねると観測所名を参照できる。

次にクリックすると気象観測と天気予報を参照できる。

マップの切り替え:黒色「×」印の緑ボタンをクリックして拡大、「-」印の緑ボタンをクリックして縮小、緑色の三角印をクリックして隣りの地図に切り替え


METAR-TAF: